aviador You're here:

KMYJ Decoded Metar

in
Report Time2017-06-27 05:15:00
UTC Time2017-06-27 05:23:42
Flight Rules vfr VFR
Wind250° at 06 kt
W.Decomp.*RWY 24: 5.9 kt HW 1.0 kt RCW
RWY 18: 2.1 kt HW 5.6 kt RCW
W.Rank250° ranks 23
Current wind is below 250° avg. (7.2)
Visibility9999 m
Phenomena:N/A
Clouds:N/A
CeilingNone
Temp12°C
Dew Point12°C (100% RH)
AAT10.5°C
QNH1021 hPa
Raw Report
KMYJ 270515Z AUTO 25006KT 10SM CLR 12/12 A3014 RMK AO2=

Extra information for KMYJ:More info

Social comments